Time;durP1;ratioP1;P1;durP2;ratioP2;P2;SDS_P1;SDS_P2;PMS_P1;PMS_P2;Temp;Humidity;BMP_temperature;BMP_pressure;BME280_temperature;BME280_humidity;BME280_pressure;Samples;Min_cycle;Max_cycle;Signal;HPM_P1;HPM_P2
2024/01/29 00:01:05;;;;;;;10.93;10.63;;;;;;;-141.02;100.00;94471.97;5112935;28;20284;-68
2024/01/29 00:03:33;;;;;;;11.10;10.80;;;;;;;-141.02;100.00;94471.97;5113149;28;20280;-68
2024/01/29 00:06:00;;;;;;;11.00;10.70;;;;;;;-141.02;100.00;94471.97;5113087;28;20234;-69
2024/01/29 00:08:32;;;;;;;11.20;10.90;;;;;;;-141.02;100.00;94471.97;5113038;28;20193;-69
2024/01/29 00:10:59;;;;;;;10.77;10.47;;;;;;;-141.02;100.00;94222.50;5112771;28;20189;-68
2024/01/29 00:13:26;;;;;;;10.90;10.60;;;;;;;-141.02;100.00;94222.50;5113067;28;20227;-68
2024/01/29 00:16:23;;;;;;;11.10;10.80;;;;;;;-141.02;100.00;94222.50;5112369;28;20573;-68
2024/01/29 00:18:51;;;;;;;10.40;10.10;;;;;;;-141.02;100.00;94222.50;5112560;28;20193;-68
2024/01/29 00:21:19;;;;;;;10.83;10.53;;;;;;;-141.02;100.00;94222.50;5112657;28;20644;-69
2024/01/29 00:24:00;;;;;;;11.00;10.70;;;;;;;-141.02;100.00;94222.50;5112581;28;20663;-69
2024/01/29 00:26:27;;;;;;;11.10;10.80;;;;;;;-141.02;100.00;94222.50;5112801;28;20225;-69
2024/01/29 00:28:54;;;;;;;9.37;9.10;;;;;;;-141.02;100.00;94222.50;5112566;28;20280;-69
2024/01/29 00:31:22;;;;;;;9.13;8.93;;;;;;;-141.02;100.00;94471.97;5112567;28;20284;-68
2024/01/29 00:33:54;;;;;;;9.20;9.00;;;;;;;-141.02;100.00;94471.97;5112455;28;20687;-69
2024/01/29 00:36:21;;;;;;;8.70;8.50;;;;;;;-141.02;100.00;94721.44;5112431;28;20733;-68
2024/01/29 00:38:48;;;;;;;8.60;8.40;;;;;;;-141.02;100.00;94721.44;5112701;28;20192;-68
2024/01/29 00:41:15;;;;;;;8.77;8.57;;;;;;;-141.02;100.00;94471.97;5112382;28;20814;-69
2024/01/29 00:43:42;;;;;;;9.10;8.90;;;;;;;-141.02;100.00;94471.97;5112704;28;20205;-69
2024/01/29 00:46:09;;;;;;;10.03;9.73;;;;;;;-141.02;100.00;94721.44;5111457;28;20236;-69
2024/01/29 00:48:36;;;;;;;9.50;9.20;;;;;;;-141.02;100.00;94721.44;5112608;28;20276;-68
2024/01/29 00:51:05;;;;;;;9.70;9.40;;;;;;;-141.02;100.00;94721.44;5112282;28;20235;-68
2024/01/29 00:53:32;;;;;;;9.77;9.47;;;;;;;-141.02;100.00;94721.44;5112234;28;20189;-68
2024/01/29 00:55:59;;;;;;;9.93;9.63;;;;;;;-141.02;100.00;94471.97;5112562;28;20296;-68
2024/01/29 00:58:26;;;;;;;9.67;9.37;;;;;;;-141.02;100.00;94471.97;5112458;28;20313;-69
2024/01/29 01:00:54;;;;;;;9.60;9.30;;;;;;;-141.02;100.00;94471.97;5112188;28;20193;-68
2024/01/29 01:03:21;;;;;;;10.00;9.70;;;;;;;-141.02;100.00;94721.44;5112453;28;20193;-69
2024/01/29 01:05:48;;;;;;;10.30;10.00;;;;;;;-141.02;100.00;94721.44;5112301;28;20256;-68
2024/01/29 01:08:17;;;;;;;10.07;9.77;;;;;;;-141.02;100.00;94721.44;5112499;28;20201;-70
2024/01/29 01:10:43;;;;;;;10.00;9.70;;;;;;;-141.02;100.00;94721.44;5112102;28;20193;-69
2024/01/29 01:13:10;;;;;;;9.70;9.40;;;;;;;-141.02;100.00;94721.44;5112176;28;20283;-67
2024/01/29 01:15:37;;;;;;;9.60;9.30;;;;;;;-141.02;100.00;94970.94;5112060;28;20575;-69
2024/01/29 01:18:05;;;;;;;10.07;9.77;;;;;;;-141.02;100.00;94721.44;5112398;28;20224;-69
2024/01/29 01:20:32;;;;;;;9.60;9.30;;;;;;;-141.02;100.00;94721.44;5112314;28;20233;-68
2024/01/29 01:23:00;;;;;;;9.73;9.43;;;;;;;-141.02;100.00;94721.44;5112305;28;20201;-70
2024/01/29 01:28:51;;;;;;;9.40;9.10;;;;;;;-141.02;100.00;94970.94;5114300;28;20661;-69
2024/01/29 01:31:25;;;;;;;8.70;8.50;;;;;;;-141.02;100.00;95220.47;5116180;28;20197;-70
2024/01/29 01:34:22;;;;;;;8.80;8.60;;;;;;;-141.02;100.00;95220.47;5115708;28;20203;-71
2024/01/29 01:40:46;;;;;;;10.50;10.20;;;;;;;-141.02;100.00;94970.94;5115654;28;20250;-68
2024/01/29 01:43:18;;;;;;;10.00;9.70;;;;;;;-141.02;100.00;94721.44;5115341;28;20196;-72
2024/01/29 01:52:26;;;;;;;12.03;11.63;;;;;;;-141.02;100.00;94721.44;5072915;28;20198;-70
2024/01/29 01:54:54;;;;;;;12.07;11.77;;;;;;;-141.02;100.00;94471.97;5072769;28;20198;-70
2024/01/29 01:57:59;;;;;;;11.17;10.87;;;;;;;-141.02;100.00;94721.44;5072713;28;20308;-68
2024/01/29 02:00:26;;;;;;;9.70;9.40;;;;;;;-141.02;100.00;94721.44;5072527;28;20202;-68
2024/01/29 02:07:03;;;;;;;9.47;9.17;;;;;;;-141.02;100.00;94721.44;5072481;28;20201;-68
2024/01/29 02:09:56;;;;;;;10.30;10.00;;;;;;;-141.02;100.00;94721.44;5072368;28;20195;-68
2024/01/29 02:12:58;;;;;;;9.00;8.80;;;;;;;-141.02;100.00;94970.94;5072270;28;20571;-68
2024/01/29 02:15:50;;;;;;;10.80;10.50;;;;;;;-141.02;100.00;94721.44;5072276;28;20205;-69
2024/01/29 02:18:17;;;;;;;8.63;8.43;;;;;;;-141.02;100.00;94471.97;5072179;28;20295;-70
2024/01/29 02:20:52;;;;;;;9.00;8.80;;;;;;;-141.02;100.00;94721.44;5114148;28;20197;-71
2024/01/29 02:23:50;;;;;;;8.27;8.07;;;;;;;-141.02;100.00;94970.94;5115146;28;20244;-69
2024/01/29 02:26:55;;;;;;;9.03;8.83;;;;;;;-141.02;100.00;94970.94;5114669;28;20312;-69
2024/01/29 02:29:22;;;;;;;9.43;9.17;;;;;;;-141.02;100.00;94970.94;5114742;28;20204;-68
2024/01/29 02:35:55;;;;;;;10.13;9.83;;;;;;;-141.02;100.00;95220.47;5115051;28;20230;-68
2024/01/29 02:38:22;;;;;;;9.80;9.50;;;;;;;-141.02;100.00;95470.00;5114633;28;20236;-70
2024/01/29 02:40:51;;;;;;;10.50;10.20;;;;;;;-141.02;100.00;95470.00;5113550;28;20193;-67
2024/01/29 02:43:52;;;;;;;10.60;10.30;;;;;;;-141.02;100.00;95470.00;5114449;28;20583;-69
2024/01/29 02:46:18;;;;;;;10.93;10.63;;;;;;;-141.02;100.00;95220.47;5103964;28;20235;-68
2024/01/29 02:52:11;;;;;;;10.40;10.10;;;;;;;-141.02;100.00;94970.94;5114364;28;20176;-69
2024/01/29 02:55:05;;;;;;;11.43;11.13;;;;;;;-141.02;100.00;94721.44;5114374;28;20201;-67
2024/01/29 03:01:09;;;;;;;10.50;10.20;;;;;;;-141.02;100.00;94721.44;5114225;28;20176;-69
2024/01/29 03:04:16;;;;;;;10.90;10.60;;;;;;;-141.02;100.00;94721.44;5114010;28;20678;-69
2024/01/29 03:07:16;;;;;;;10.00;9.70;;;;;;;-141.02;100.00;94471.97;5114168;28;20626;-67
2024/01/29 03:10:18;;;;;;;10.20;9.90;;;;;;;-141.02;100.00;94471.97;5113875;28;20204;-69
2024/01/29 03:12:57;;;;;;;9.80;9.50;;;;;;;-141.02;100.00;94471.97;5113762;28;20200;-71
2024/01/29 03:22:59;;;;;;;10.30;10.00;;;;;;;-141.02;100.00;93973.06;5114058;28;20176;-70
2024/01/29 03:25:57;;;;;;;11.77;11.47;;;;;;;-141.02;100.00;93723.63;5113556;28;20193;-68
2024/01/29 03:28:54;;;;;;;10.97;10.67;;;;;;;-141.02;100.00;93973.06;5113861;28;20224;-69
2024/01/29 03:31:44;;;;;;;11.30;11.00;;;;;;;-141.02;100.00;94222.50;5113519;28;20205;-69
2024/01/29 04:29:30;;;;;;;11.30;11.00;;;;;;;-141.02;100.00;92975.47;5093668;28;20604;-69
2024/01/29 04:31:58;;;;;;;11.60;11.30;;;;;;;-141.02;100.00;92975.47;5112478;28;20199;-69
2024/01/29 04:34:25;;;;;;;11.93;11.53;;;;;;;-141.02;100.00;92975.47;5112834;28;20276;-69
2024/01/29 04:36:56;;;;;;;12.80;12.40;;;;;;;-141.02;100.00;92975.47;5112441;28;20287;-70
2024/01/29 04:39:23;;;;;;;11.40;11.10;;;;;;;-141.02;100.00;92975.47;5112747;28;20663;-70
2024/01/29 04:41:50;;;;;;;11.30;11.00;;;;;;;-141.02;100.00;92975.47;5112458;28;20282;-70
2024/01/29 04:44:17;;;;;;;11.50;11.20;;;;;;;-141.02;100.00;92975.47;5112377;28;20243;-69
2024/01/29 04:46:50;;;;;;;10.90;10.60;;;;;;;-141.02;100.00;92975.47;5112600;28;20256;-70
2024/01/29 04:49:18;;;;;;;10.63;10.33;;;;;;;-141.02;100.00;93224.84;5112576;28;20276;-70
2024/01/29 04:51:52;;;;;;;12.80;12.40;;;;;;;-141.02;100.00;92975.47;5112662;28;20224;-70
2024/01/29 04:54:19;;;;;;;12.30;11.90;;;;;;;-141.02;100.00;92975.47;5112296;28;20738;-70
2024/01/29 04:56:46;;;;;;;10.03;9.73;;;;;;;-141.02;100.00;93474.22;5112605;28;20199;-70
2024/01/29 04:59:13;;;;;;;9.67;9.37;;;;;;;-141.02;100.00;93224.84;5112513;28;20276;-70
2024/01/29 05:01:40;;;;;;;9.70;9.40;;;;;;;-141.02;100.00;93224.84;5112585;28;20279;-70
2024/01/29 05:04:06;;;;;;;9.70;9.40;;;;;;;-141.02;100.00;93474.22;5115151;28;20287;-70
2024/01/29 05:06:35;;;;;;;9.87;9.57;;;;;;;-141.02;100.00;93474.22;5116478;28;20276;-70
2024/01/29 05:09:02;;;;;;;10.57;10.27;;;;;;;-141.02;100.00;93474.22;5116340;28;20200;-70
2024/01/29 05:11:29;;;;;;;10.73;10.43;;;;;;;-141.02;100.00;93474.22;5116508;28;20240;-70
2024/01/29 05:13:56;;;;;;;9.90;9.60;;;;;;;-141.02;100.00;93723.63;5116530;28;20200;-70
2024/01/29 05:16:23;;;;;;;10.60;10.30;;;;;;;-141.02;100.00;93723.63;5116416;28;20222;-70
2024/01/29 05:18:59;;;;;;;12.60;12.20;;;;;;;-141.02;100.00;93723.63;5116413;28;20201;-70
2024/01/29 05:21:27;;;;;;;13.23;12.83;;;;;;;-141.02;100.00;93474.22;5116324;28;20189;-70
2024/01/29 05:23:55;;;;;;;14.40;13.90;;;;;;;-141.02;100.00;93474.22;5115934;28;20648;-70
2024/01/29 05:26:22;;;;;;;14.33;13.83;;;;;;;-141.02;100.00;93474.22;5116243;28;20276;-70
2024/01/29 05:28:49;;;;;;;14.97;14.47;;;;;;;-141.02;100.00;93224.84;5115647;28;20311;-70
2024/01/29 05:31:16;;;;;;;13.50;13.00;;;;;;;-141.02;100.00;93224.84;5116162;28;20189;-70
2024/01/29 05:33:42;;;;;;;14.70;14.20;;;;;;;-141.02;100.00;92975.47;5115790;28;20738;-70
2024/01/29 05:36:09;;;;;;;14.20;13.70;;;;;;;-141.02;100.00;92975.47;5116046;28;20225;-70
2024/01/29 05:38:36;;;;;;;15.13;14.53;;;;;;;-141.02;100.00;93224.84;5115717;28;20232;-70
2024/01/29 05:41:05;;;;;;;15.70;15.10;;;;;;;-141.02;100.00;93224.84;5115664;28;20197;-70
2024/01/29 05:43:32;;;;;;;14.40;13.80;;;;;;;-141.02;100.00;93474.22;5115663;28;20233;-69
2024/01/29 05:45:59;;;;;;;13.40;12.90;;;;;;;-141.02;100.00;93474.22;5115825;28;20284;-69
2024/01/29 05:48:25;;;;;;;14.30;13.77;;;;;;;-141.02;100.00;93474.22;5115445;28;20264;-69
2024/01/29 05:50:52;;;;;;;12.90;12.40;;;;;;;-141.02;100.00;93474.22;5116631;28;20201;-70
2024/01/29 05:53:20;;;;;;;11.20;10.80;;;;;;;-141.02;100.00;93723.63;5115716;28;20228;-70
2024/01/29 05:55:47;;;;;;;11.30;10.90;;;;;;;-141.02;100.00;93723.63;5115726;28;20276;-70
2024/01/29 05:58:15;;;;;;;10.57;10.27;;;;;;;-141.02;100.00;93973.06;5115555;28;20275;-70
2024/01/29 06:00:42;;;;;;;11.53;11.13;;;;;;;-141.02;100.00;93973.06;5115613;28;20277;-70
2024/01/29 06:03:10;;;;;;;11.20;10.80;;;;;;;-141.02;100.00;94222.50;5115212;28;20197;-69
2024/01/29 06:05:36;;;;;;;11.60;11.20;;;;;;;-141.02;100.00;94471.97;5115444;28;20246;-69
2024/01/29 06:08:04;;;;;;;11.53;11.13;;;;;;;-141.02;100.00;94222.50;5115336;28;20317;-70
2024/01/29 06:10:31;;;;;;;12.40;12.00;;;;;;;-141.02;100.00;94222.50;5115047;28;20285;-70
2024/01/29 06:12:58;;;;;;;12.53;12.10;;;;;;;-141.02;100.00;94222.50;5115094;28;20197;-70
2024/01/29 06:15:26;;;;;;;11.60;11.20;;;;;;;-141.02;100.00;94471.97;5113633;28;20289;-70
2024/01/29 06:17:54;;;;;;;11.13;10.73;;;;;;;-141.02;100.00;94721.44;5115510;28;20662;-69
2024/01/29 06:20:21;;;;;;;10.77;10.47;;;;;;;-141.02;100.00;94970.94;5115218;28;20228;-70
2024/01/29 06:22:47;;;;;;;11.10;10.70;;;;;;;-141.02;100.00;94970.94;5115101;28;20639;-70
2024/01/29 06:25:17;;;;;;;10.90;10.53;;;;;;;-141.02;100.00;94970.94;5114773;28;20280;-70
2024/01/29 06:27:43;;;;;;;10.70;10.40;;;;;;;-141.02;100.00;95220.47;5115189;28;20229;-70
2024/01/29 06:30:11;;;;;;;11.07;10.67;;;;;;;-141.02;100.00;95470.00;5114605;28;20312;-69
2024/01/29 06:32:40;;;;;;;11.20;10.80;;;;;;;-141.02;100.00;95470.00;5115024;28;20280;-70
2024/01/29 06:35:07;;;;;;;11.70;11.30;;;;;;;-141.02;100.00;94970.94;5114950;28;20225;-70
2024/01/29 06:37:34;;;;;;;11.50;11.10;;;;;;;-141.02;100.00;94970.94;5114601;28;20280;-70
2024/01/29 06:40:02;;;;;;;11.80;11.40;;;;;;;-141.02;100.00;95220.47;5114535;28;20276;-70
2024/01/29 06:42:29;;;;;;;11.20;10.80;;;;;;;-141.02;100.00;94970.94;5114863;28;20276;-70
2024/01/29 06:44:56;;;;;;;11.33;10.93;;;;;;;-141.02;100.00;94970.94;5114394;28;20254;-70
2024/01/29 06:47:23;;;;;;;12.90;12.40;;;;;;;-141.02;100.00;95220.47;5114295;28;20264;-70
2024/01/29 06:49:51;;;;;;;9.93;9.63;;;;;;;-141.02;100.00;95220.47;5114272;28;20662;-70
2024/01/29 06:52:18;;;;;;;11.00;10.60;;;;;;;-141.02;100.00;95220.47;5114542;28;20277;-70
2024/01/29 06:54:48;;;;;;;11.13;10.77;;;;;;;-141.02;100.00;95220.47;5114526;28;20229;-69
2024/01/29 06:57:15;;;;;;;11.57;11.17;;;;;;;-141.02;100.00;95220.47;5114472;28;20289;-69
2024/01/29 06:59:42;;;;;;;11.73;11.33;;;;;;;-141.02;100.00;95470.00;5114118;28;20229;-69
2024/01/29 07:02:09;;;;;;;12.33;11.93;;;;;;;-141.02;100.00;95719.53;5114061;28;20280;-70
2024/01/29 07:04:36;;;;;;;13.20;12.70;;;;;;;-141.02;100.00;96218.69;5114352;28;20231;-70
2024/01/29 07:07:05;;;;;;;14.30;13.80;;;;;;;-141.02;100.00;95969.13;5113915;28;20232;-69
2024/01/29 07:09:32;;;;;;;14.90;14.30;;;;;;;-141.02;100.00;95719.53;5113883;28;20193;-69
2024/01/29 07:11:59;;;;;;;15.17;14.57;;;;;;;-141.02;100.00;95719.53;5113945;28;20189;-70
2024/01/29 07:14:26;;;;;;;14.43;13.93;;;;;;;-141.02;100.00;95470.00;5113766;28;20240;-70
2024/01/29 07:17:02;;;;;;;13.67;13.17;;;;;;;-141.02;100.00;95220.47;5113802;28;20663;-70
2024/01/29 07:19:33;;;;;;;16.23;15.53;;;;;;;-141.02;100.00;95470.00;5113989;28;20239;-69
2024/01/29 07:22:04;;;;;;;17.53;16.83;;;;;;;-141.02;100.00;95719.53;5114028;28;20181;-69
2024/01/29 07:24:33;;;;;;;17.57;16.77;;;;;;;-141.02;100.00;95220.47;5113692;28;20196;-70
2024/01/29 07:27:00;;;;;;;17.90;17.10;;;;;;;-141.02;100.00;94471.97;5113484;28;20224;-69
2024/01/29 07:29:27;;;;;;;18.17;17.37;;;;;;;-141.02;100.00;94471.97;5113394;28;20323;-69
2024/01/29 07:31:54;;;;;;;18.53;17.73;;;;;;;-141.02;100.00;93973.06;5113801;28;20571;-69
2024/01/29 07:34:21;;;;;;;16.33;15.63;;;;;;;-141.02;100.00;94222.50;5113778;28;20193;-70
2024/01/29 07:36:48;;;;;;;17.10;16.30;;;;;;;-141.02;100.00;93973.06;5113411;28;20232;-70
2024/01/29 07:39:15;;;;;;;18.47;17.67;;;;;;;-141.02;100.00;93973.06;5113704;28;20235;-70
2024/01/29 07:41:43;;;;;;;17.40;16.70;;;;;;;-141.02;100.00;94471.97;5113607;28;20258;-70
2024/01/29 07:44:10;;;;;;;17.93;17.13;;;;;;;-141.02;100.00;93973.06;5113236;28;20287;-70
2024/01/29 07:46:37;;;;;;;19.23;18.43;;;;;;;-141.02;100.00;93474.22;5113553;28;20322;-72
2024/01/29 07:49:04;;;;;;;18.97;18.27;;;;;;;-141.02;100.00;93224.84;5113067;28;20684;-71
2024/01/29 07:51:31;;;;;;;18.57;17.87;;;;;;;-141.02;100.00;93224.84;5113181;28;20197;-72
2024/01/29 07:53:59;;;;;;;16.47;15.77;;;;;;;-141.02;100.00;93973.06;5113036;28;20229;-71
2024/01/29 07:56:26;;;;;;;18.40;17.60;;;;;;;-141.02;100.00;93973.06;5113317;28;20254;-72
2024/01/29 07:58:54;;;;;;;19.80;18.90;;;;;;;-141.02;100.00;94222.50;5113019;28;20228;-72
2024/01/29 08:01:21;;;;;;;21.80;20.90;;;;;;;-141.02;100.00;94222.50;5113233;28;20295;-72
2024/01/29 08:03:48;;;;;;;20.97;20.07;;;;;;;-141.02;100.00;94471.97;5113271;28;20653;-71
2024/01/29 08:06:15;;;;;;;21.30;20.30;;;;;;;-141.02;100.00;93973.06;5112861;28;20243;-72
2024/01/29 08:12:05;;;;;;;19.90;19.00;;;;;;;-141.02;100.00;94222.50;5112837;28;20223;-70
2024/01/29 08:14:36;;;;;;;21.50;20.50;;;;;;;-141.02;100.00;94222.50;5113102;28;20275;-72
2024/01/29 08:17:05;;;;;;;21.80;20.80;;;;;;;-141.02;100.00;93973.06;5112726;28;20193;-71
2024/01/29 08:19:32;;;;;;;22.77;21.77;;;;;;;-141.02;100.00;93474.22;5112633;28;20250;-71
2024/01/29 08:21:59;;;;;;;20.30;19.50;;;;;;;-141.02;100.00;93723.63;5113038;28;20236;-71
2024/01/29 08:24:26;;;;;;;22.07;21.07;;;;;;;-141.02;100.00;93474.22;5112974;28;20189;-71
2024/01/29 08:26:53;;;;;;;21.70;20.70;;;;;;;-141.02;100.00;93474.22;5112599;28;20280;-71
2024/01/29 08:29:20;;;;;;;20.43;19.53;;;;;;;-141.02;100.00;93474.22;5112429;28;20268;-71
2024/01/29 08:31:48;;;;;;;21.20;20.30;;;;;;;-141.02;100.00;93474.22;5112440;28;20197;-70
2024/01/29 08:34:15;;;;;;;21.67;20.67;;;;;;;-141.02;100.00;93224.84;5112795;28;20288;-70
2024/01/29 08:36:42;;;;;;;18.90;18.10;;;;;;;-141.02;100.00;93474.22;5112735;28;20195;-70
2024/01/29 08:39:09;;;;;;;19.37;18.57;;;;;;;-141.02;100.00;93973.06;5111748;28;20657;-70
2024/01/29 08:41:36;;;;;;;20.93;20.03;;;;;;;-141.02;100.00;94222.50;5112673;28;20204;-71
2024/01/29 08:44:03;;;;;;;22.30;21.30;;;;;;;-141.02;100.00;93973.06;5112381;28;20195;-70
2024/01/29 08:47:21;;;;;;;24.77;23.57;;;;;;;-141.02;100.00;93474.22;5113171;28;20202;-73
2024/01/29 08:49:51;;;;;;;24.93;23.73;;;;;;;-141.02;100.00;93723.63;5112548;28;20690;-76
2024/01/29 08:52:31;;;;;;;26.47;25.17;;;;;;;-141.02;100.00;93474.22;5113606;28;20216;-72
2024/01/29 08:54:58;;;;;;;23.47;22.37;;;;;;;-141.02;100.00;93474.22;5112597;28;20629;-74
2024/01/29 09:11:00;;;;;;;25.07;23.87;;;;;;;-141.02;100.00;93723.63;5130908;27;20545;-74
2024/01/29 09:13:26;;;;;;;21.40;20.40;;;;;;;-141.02;100.00;93723.63;5130662;28;20200;-74
2024/01/29 09:15:53;;;;;;;19.27;18.37;;;;;;;-141.02;100.00;93973.06;5130205;28;20696;-74
2024/01/29 09:18:20;;;;;;;18.83;17.93;;;;;;;-141.02;100.00;93474.22;5130070;28;20680;-75
2024/01/29 09:20:47;;;;;;;19.27;18.37;;;;;;;-141.02;100.00;93474.22;5130086;28;20193;-74
2024/01/29 09:23:14;;;;;;;18.57;17.67;;;;;;;-141.02;100.00;93973.06;5130044;28;20193;-75
2024/01/29 09:25:42;;;;;;;19.00;18.10;;;;;;;-141.02;100.00;94222.50;5130000;28;20283;-75
2024/01/29 09:28:11;;;;;;;21.70;20.53;;;;;;;-141.02;100.00;94222.50;5130012;27;20188;-74
2024/01/29 09:30:37;;;;;;;22.10;20.90;;;;;;;-141.02;100.00;93474.22;5130487;28;20288;-74
2024/01/29 09:33:07;;;;;;;24.90;23.50;;;;;;;-141.02;100.00;93474.22;5130185;28;20284;-74
2024/01/29 09:35:34;;;;;;;22.37;21.07;;;;;;;-141.02;100.00;93224.84;5130098;28;20195;-74
2024/01/29 09:38:02;;;;;;;20.47;19.37;;;;;;;-141.02;100.00;93723.63;5129809;28;20235;-74
2024/01/29 09:40:29;;;;;;;20.20;19.00;;;;;;;-141.02;100.00;93474.22;5129715;27;20318;-74
2024/01/29 09:42:57;;;;;;;25.93;24.53;;;;;;;-141.02;100.00;93474.22;5129707;28;20199;-74
2024/01/29 09:45:27;;;;;;;16.50;15.50;;;;;;;-141.02;100.00;93224.84;5129921;28;20200;-74
2024/01/29 09:48:15;;;;;;;16.93;15.93;;;;;;;-141.02;100.00;93723.63;5129660;27;20670;-74
2024/01/29 10:02:35;;;;;;;23.37;21.87;;;;;;;-141.02;100.00;92476.78;5086487;28;20550;-74
2024/01/29 10:05:02;;;;;;;27.27;25.67;;;;;;;-141.02;100.00;92726.13;5085935;28;20190;-74
2024/01/29 10:07:29;;;;;;;31.50;29.70;;;;;;;-141.02;100.00;92726.13;5085792;28;20739;-74
2024/01/29 10:09:56;;;;;;;26.83;25.17;;;;;;;-141.02;100.00;92726.13;5085741;28;20236;-74
2024/01/29 10:12:23;;;;;;;23.00;21.60;;;;;;;-141.02;100.00;92476.78;5085738;28;20290;-74
2024/01/29 10:14:55;;;;;;;26.10;24.60;;;;;;;-141.02;100.00;92476.78;5085771;27;20193;-73
2024/01/29 10:17:23;;;;;;;22.50;21.10;;;;;;;-141.02;100.00;91978.16;5085624;28;20652;-74
2024/01/29 10:19:51;;;;;;;32.10;30.20;;;;;;;-141.02;100.00;92227.47;5085978;27;20194;-74
2024/01/29 10:22:23;;;;;;;29.40;27.70;;;;;;;-141.02;100.00;92476.78;5085891;28;20225;-74
2024/01/29 10:25:00;;;;;;;32.60;30.70;;;;;;;-141.02;100.00;91978.16;5085572;28;20273;-74
2024/01/29 10:27:27;;;;;;;31.40;29.60;;;;;;;-141.02;100.00;92227.47;5085906;28;20220;-74
2024/01/29 10:29:54;;;;;;;32.67;30.70;;;;;;;-141.02;100.00;92476.78;5085660;28;20226;-73
2024/01/29 10:32:21;;;;;;;26.27;24.67;;;;;;;-141.02;100.00;92476.78;5085465;28;20237;-74
2024/01/29 10:34:50;;;;;;;26.67;25.13;;;;;;;-141.02;100.00;92726.13;5085508;28;20209;-74
2024/01/29 10:37:17;;;;;;;29.87;28.07;;;;;;;-141.02;100.00;92476.78;5085336;28;20230;-74
2024/01/29 10:39:45;;;;;;;29.67;27.87;;;;;;;-141.02;100.00;92476.78;5085561;28;20204;-74
2024/01/29 10:42:14;;;;;;;33.83;31.73;;;;;;;-141.02;100.00;92227.47;5085297;28;20288;-74
2024/01/29 10:44:43;;;;;;;33.70;31.57;;;;;;;-141.02;100.00;91728.88;5085610;28;20225;-74
2024/01/29 10:47:18;;;;;;;33.10;31.00;;;;;;;-141.02;100.00;92227.47;5085499;28;20237;-74
2024/01/29 10:49:46;;;;;;;33.97;31.77;;;;;;;-141.02;100.00;91978.16;5085266;27;20273;-74
2024/01/29 10:52:16;;;;;;;18.77;17.30;;;;;;;-141.02;100.00;91978.16;5085415;27;20313;-75
2024/01/29 10:54:43;;;;;;;19.20;17.70;;;;;;;-141.02;100.00;91728.88;5085090;28;20284;-74
2024/01/29 10:57:14;;;;;;;18.60;17.20;;;;;;;-141.02;100.00;91728.88;5085396;28;20198;-74
2024/01/29 10:59:43;;;;;;;19.30;17.80;;;;;;;-141.02;100.00;91479.63;5085440;27;20221;-73
2024/01/29 11:02:13;;;;;;;19.83;18.33;;;;;;;-141.02;100.00;91728.88;5078635;27;20711;-74
2024/01/29 11:04:40;;;;;;;21.10;19.40;;;;;;;-141.02;100.00;90981.13;5071967;27;20200;-74
2024/01/29 11:07:12;;;;;;;25.70;23.70;;;;;;;-141.02;100.00;91479.63;5071798;28;20226;-74
2024/01/29 11:09:49;;;;;;;22.00;20.33;;;;;;;-141.02;100.00;91728.88;5071799;27;20270;-74
2024/01/29 11:12:16;;;;;;;23.20;21.47;;;;;;;-141.02;100.00;91479.63;5071329;28;20218;-74
2024/01/29 11:14:47;;;;;;;24.07;22.17;;;;;;;-141.02;100.00;90482.72;5071385;27;20285;-75
2024/01/29 11:17:14;;;;;;;25.07;22.97;;;;;;;-141.02;94.51;87991.81;5071727;28;20198;-75
2024/01/29 11:19:43;;;;;;;25.27;23.07;;;;;;;-141.02;86.20;84756.25;5071521;28;20202;-75
2024/01/29 11:22:10;;;;;;;28.47;26.07;;;;;;;-141.02;88.82;84507.50;5071599;27;20285;-75
2024/01/29 11:24:37;;;;;;;27.43;25.03;;;;;;;-141.02;88.71;83761.31;5071459;28;20230;-75
2024/01/29 11:27:09;;;;;;;31.40;28.80;;;;;;;-141.02;85.36;83015.31;5071094;28;20247;-75
2024/01/29 11:29:37;;;;;;;25.30;23.00;;;;;;;-141.02;88.18;82766.69;5071958;28;20237;-76
2024/01/29 11:32:05;;;;;;;28.57;26.17;;;;;;;-141.02;89.59;83761.31;5071255;28;20230;-76
2024/01/29 11:34:32;;;;;;;29.40;26.97;;;;;;;-141.02;83.39;83761.31;5071234;28;20201;-75
2024/01/29 11:37:00;;;;;;;31.10;28.60;;;;;;;-141.02;79.70;84258.75;5070931;28;20244;-76
2024/01/29 11:39:27;;;;;;;31.93;29.23;;;;;;;-141.02;75.54;83512.63;5071124;28;20198;-77
2024/01/29 11:41:54;;;;;;;32.10;29.50;;;;;;;-141.02;74.68;82269.47;5071154;28;20250;-76
2024/01/29 11:44:23;;;;;;;27.27;24.77;;;;;;;-141.02;74.93;83263.97;5070875;27;20289;-75
2024/01/29 11:46:51;;;;;;;27.03;24.53;;;;;;;-141.02;72.76;84507.50;5070790;27;20230;-76
2024/01/29 11:53:23;;;;;;;34.53;31.53;;;;;;;-141.02;72.82;81772.31;5069769;28;20555;-75
2024/01/29 11:56:29;;;;;;;35.60;32.60;;;;;;;-141.02;67.70;81523.75;5070721;27;20187;-75
2024/01/29 11:59:01;;;;;;;27.83;25.13;;;;;;;-141.02;69.49;83015.31;5070595;28;20195;-75
2024/01/29 12:02:22;;;;;;;27.50;24.90;;;;;;;-141.02;69.79;81275.25;5070555;28;20238;-75
2024/01/29 12:04:51;;;;;;;32.87;30.07;;;;;;;-141.02;79.74;80529.75;5070595;28;20669;-76
2024/01/29 12:07:18;;;;;;;34.60;31.80;;;;;;;-141.02;81.12;79287.66;5070728;28;20222;-75
2024/01/29 12:09:44;;;;;;;35.13;32.30;;;;;;;-141.02;74.31;77053.00;5070712;28;20197;-77
2024/01/29 12:12:41;;;;;;;36.17;33.10;;;;;;;-141.02;68.56;74571.75;5070656;28;20272;-77
2024/01/29 12:15:10;;;;;;;28.40;25.80;;;;;;;-141.02;69.11;74323.72;5069267;28;20224;-76
2024/01/29 12:18:31;;;;;;;33.33;30.43;;;;;;;-141.02;69.06;73579.75;5070384;27;20230;-77
2024/01/29 12:21:00;;;;;;;34.23;31.33;;;;;;;-141.02;69.22;73579.75;5070604;28;20580;-77
2024/01/29 12:23:27;;;;;;;35.67;32.77;;;;;;;-141.02;70.20;74075.72;5070209;27;20226;-74
2024/01/29 12:25:54;;;;;;;34.03;31.23;;;;;;;-141.02;70.25;74571.75;5070160;28;20195;-77
2024/01/29 12:28:23;;;;;;;28.90;26.30;;;;;;;-141.02;68.06;73083.88;5070222;27;20289;-78
2024/01/29 12:30:55;;;;;;;29.20;26.50;;;;;;;-141.02;69.93;72835.97;5071136;27;20236;-79
2024/01/29 12:33:28;;;;;;;29.40;26.80;;;;;;;-141.02;79.01;74323.72;5070355;28;20203;-78
2024/01/29 12:39:22;;;;;;;25.70;23.50;;;;;;;-141.02;90.36;77053.00;5028276;28;20720;-76
2024/01/29 12:41:49;;;;;;;34.33;31.63;;;;;;;-141.02;79.77;75067.88;5028135;28;20283;-77
2024/01/29 12:44:16;;;;;;;30.47;27.87;;;;;;;-141.02;73.99;73827.72;5028077;28;20280;-78
2024/01/29 12:50:05;;;;;;;34.43;31.63;;;;;;;-141.02;74.66;73579.75;5027972;28;20224;-78
2024/01/29 12:52:58;;;;;;;33.70;30.97;;;;;;;-141.02;72.70;73331.81;5027814;28;20310;-76
2024/01/29 12:56:13;;;;;;;33.93;31.13;;;;;;;-141.02;72.79;73083.88;5027905;28;20196;-77
2024/01/29 12:58:40;;;;;;;27.07;24.57;;;;;;;-141.02;74.15;73083.88;5027835;28;20192;-79
2024/01/29 13:01:22;;;;;;;30.40;27.80;;;;;;;-141.02;73.87;72835.97;5017729;28;20303;-78
2024/01/29 13:04:16;;;;;;;31.03;28.43;;;;;;;-141.02;76.62;73579.75;5016585;28;20191;-77
2024/01/29 13:06:43;;;;;;;26.90;24.50;;;;;;;-141.02;76.04;73579.75;5030051;28;20199;-77
2024/01/29 13:09:57;;;;;;;28.23;25.73;;;;;;;-141.02;77.01;73827.72;5030631;28;20294;-78
2024/01/29 13:12:25;;;;;;;33.47;30.77;;;;;;;-141.02;75.58;73331.81;5029784;28;20227;-78
2024/01/29 13:14:52;;;;;;;33.00;30.30;;;;;;;-141.02;75.64;72835.97;5030224;28;20200;-78
2024/01/29 13:24:02;;;;;;;27.50;25.17;;;;;;;-141.02;77.36;73331.81;5030336;28;20285;-79
2024/01/29 13:26:31;;;;;;;27.87;25.47;;;;;;;-141.02;77.65;72588.06;5029221;28;20295;-78
2024/01/29 13:29:00;;;;;;;28.30;25.80;;;;;;;-141.02;76.91;72588.06;5030061;28;20196;-78
2024/01/29 13:31:57;;;;;;;30.47;27.77;;;;;;;-141.02;77.59;73331.81;5030050;28;20263;-78
2024/01/29 13:34:24;;;;;;;26.73;24.43;;;;;;;-141.02;76.84;72835.97;5030442;28;20192;-78